createdAt,value
2017-05-14T00:01:38.047Z,50.30
2017-05-14T00:04:06.328Z,54.35
2017-05-14T00:06:34.992Z,53.58
2017-05-14T00:09:03.277Z,54.53
2017-05-14T00:11:31.583Z,53.82
2017-05-14T00:13:59.877Z,55.83
2017-05-14T00:16:28.173Z,52.78
2017-05-14T00:18:56.468Z,54.65
2017-05-14T00:21:24.762Z,53.28
2017-05-14T00:23:53.049Z,51.77
2017-05-14T00:26:21.364Z,52.15
2017-05-14T00:28:49.671Z,56.75
2017-05-14T00:31:18.700Z,60.20
2017-05-14T00:33:47.000Z,55.82
2017-05-14T00:36:15.377Z,54.53
2017-05-14T00:38:43.658Z,58.90
2017-05-14T00:41:11.964Z,57.75
2017-05-14T00:43:40.270Z,56.35
2017-05-14T00:46:08.565Z,55.68
2017-05-14T00:48:37.750Z,53.73
2017-05-14T00:51:06.025Z,56.10
2017-05-14T00:53:34.315Z,55.75
2017-05-14T00:56:02.887Z,54.20
2017-05-14T00:58:31.166Z,54.20
2017-05-14T01:00:59.475Z,53.35
2017-05-14T01:03:27.775Z,54.83
2017-05-14T01:05:56.054Z,56.18
2017-05-14T01:08:24.367Z,52.78
2017-05-14T01:10:52.657Z,55.70
2017-05-14T01:13:20.970Z,51.55
2017-05-14T01:15:49.283Z,57.40
2017-05-14T01:18:17.570Z,60.43
2017-05-14T01:20:45.859Z,55.52
2017-05-14T01:23:14.161Z,55.67
2017-05-14T01:25:42.444Z,55.63
2017-05-14T01:28:10.746Z,55.82
2017-05-14T01:30:39.014Z,59.22
2017-05-14T01:33:07.315Z,56.27
2017-05-14T01:35:35.605Z,57.10
2017-05-14T01:38:04.139Z,60.90
2017-05-14T01:40:32.483Z,58.62
2017-05-14T01:43:00.794Z,59.15
2017-05-14T01:45:29.101Z,59.03
2017-05-14T01:47:57.380Z,57.40
2017-05-14T01:50:25.733Z,62.25
2017-05-14T01:52:54.130Z,60.38
2017-05-14T01:55:22.459Z,63.57
2017-05-14T01:57:50.760Z,59.78
2017-05-14T02:00:19.059Z,59.52
2017-05-14T02:02:47.363Z,61.38
2017-05-14T02:05:15.702Z,58.00
2017-05-14T02:07:44.031Z,61.17
2017-05-14T02:10:13.070Z,58.80
2017-05-14T02:12:41.369Z,60.83
2017-05-14T02:15:09.660Z,57.97
2017-05-14T02:17:37.963Z,59.50
2017-05-14T02:20:06.383Z,59.92
2017-05-14T02:22:34.677Z,59.38
2017-05-14T02:25:02.969Z,61.93
2017-05-14T02:27:31.255Z,57.20
2017-05-14T02:30:00.310Z,56.50
2017-05-14T02:32:28.614Z,57.25
2017-05-14T02:34:56.898Z,61.57
2017-05-14T02:37:25.179Z,62.05
2017-05-14T02:39:53.468Z,59.67
2017-05-14T02:42:22.498Z,62.40
2017-05-14T02:44:50.789Z,63.62
2017-05-14T02:47:19.108Z,63.47
2017-05-14T02:49:47.409Z,63.63
2017-05-14T02:52:15.714Z,61.32
2017-05-14T02:54:44.017Z,60.65
2017-05-14T02:57:12.332Z,62.47
2017-05-14T02:59:41.349Z,57.03
2017-05-14T03:02:09.650Z,64.23
2017-05-14T03:04:37.973Z,59.85
2017-05-14T03:07:06.261Z,58.85
2017-05-14T03:09:35.293Z,58.28
2017-05-14T03:12:03.595Z,59.62
2017-05-14T03:14:31.905Z,57.43
2017-05-14T03:17:00.260Z,57.50
2017-05-14T03:19:28.552Z,56.27
2017-05-14T03:21:56.838Z,58.75
2017-05-14T03:24:25.182Z,59.23
2017-05-14T03:26:53.477Z,57.33
2017-05-14T03:29:21.781Z,52.43
2017-05-14T03:31:50.067Z,53.80
2017-05-14T03:34:18.367Z,58.97
2017-05-14T03:36:46.681Z,54.73
2017-05-14T03:39:14.999Z,57.03
2017-05-14T03:41:43.619Z,57.12
2017-05-14T03:44:11.957Z,52.47
2017-05-14T03:46:40.233Z,57.92
2017-05-14T03:49:09.298Z,57.87
2017-05-14T03:51:37.613Z,56.38
2017-05-14T03:54:05.910Z,84.88
2017-05-14T03:56:34.247Z,82.05
2017-05-14T03:59:02.537Z,75.43
2017-05-14T04:01:30.812Z,68.77
2017-05-14T04:03:59.123Z,63.05
2017-05-14T04:06:27.428Z,64.08
2017-05-14T04:08:55.719Z,72.45
2017-05-14T04:11:24.040Z,64.42
2017-05-14T04:13:52.355Z,71.48
2017-05-14T04:16:20.631Z,68.48
2017-05-14T04:18:48.931Z,60.87
2017-05-14T04:21:17.223Z,64.27
2017-05-14T04:23:45.526Z,58.92
2017-05-14T04:26:13.808Z,61.55
2017-05-14T04:28:42.101Z,55.00
2017-05-14T04:31:10.395Z,55.25
2017-05-14T04:33:38.692Z,54.92
2017-05-14T04:36:06.979Z,51.60
2017-05-14T04:38:35.977Z,53.43
2017-05-14T04:41:04.259Z,49.03
2017-05-14T04:43:33.105Z,48.73
2017-05-14T04:46:01.445Z,50.50
2017-05-14T04:48:29.752Z,52.88
2017-05-14T04:50:58.038Z,51.50
2017-05-14T04:53:26.323Z,49.57
2017-05-14T04:55:54.604Z,51.38
2017-05-14T04:58:22.911Z,52.57
2017-05-14T05:00:51.975Z,51.33
2017-05-14T05:03:20.275Z,53.12
2017-05-14T05:05:48.549Z,54.40
2017-05-14T05:08:16.928Z,53.92
2017-05-14T05:10:45.210Z,50.50
2017-05-14T05:13:13.484Z,54.02
2017-05-14T05:15:41.761Z,50.77
2017-05-14T05:18:10.055Z,47.45
2017-05-14T05:20:38.351Z,48.15
2017-05-14T05:23:06.651Z,48.15
2017-05-14T05:25:34.949Z,48.55
2017-05-14T05:28:03.244Z,50.68
2017-05-14T05:30:31.553Z,48.32
2017-05-14T05:32:59.846Z,48.57
2017-05-14T05:35:28.146Z,49.58
2017-05-14T05:37:56.426Z,47.80
2017-05-14T05:40:24.713Z,47.42
2017-05-14T05:42:53.027Z,47.43
2017-05-14T05:45:21.307Z,46.03
2017-05-14T05:47:49.613Z,43.07
2017-05-14T05:50:18.052Z,47.08
2017-05-14T05:52:46.394Z,46.78
2017-05-14T05:55:14.698Z,45.72
2017-05-14T05:57:42.988Z,48.95
2017-05-14T06:00:14.896Z,48.97
2017-05-14T06:02:43.193Z,47.53
2017-05-14T06:05:11.527Z,50.35
2017-05-14T06:07:39.848Z,47.78
2017-05-14T06:10:08.141Z,50.07
2017-05-14T06:12:36.423Z,48.90
2017-05-14T06:15:04.886Z,52.70
2017-05-14T06:17:33.194Z,49.63
2017-05-14T06:20:01.470Z,53.72
2017-05-14T06:22:29.779Z,50.17
2017-05-14T06:24:58.600Z,46.25
2017-05-14T06:27:26.909Z,48.83
2017-05-14T06:29:55.384Z,51.10
2017-05-14T06:32:23.662Z,48.77
2017-05-14T06:34:51.953Z,47.67
2017-05-14T06:37:20.251Z,49.85
2017-05-14T06:39:48.551Z,45.47
2017-05-14T06:42:16.919Z,45.03
2017-05-14T06:44:45.211Z,45.68
2017-05-14T06:47:13.510Z,43.68
2017-05-14T06:49:41.812Z,43.62
2017-05-14T06:52:10.273Z,44.93
2017-05-14T06:54:38.588Z,45.78
2017-05-14T06:57:06.901Z,42.83
2017-05-14T06:59:35.203Z,46.07
2017-05-14T07:02:03.531Z,44.20
2017-05-14T07:04:32.635Z,39.88
2017-05-14T07:07:00.946Z,42.43
2017-05-14T07:09:29.322Z,39.52
2017-05-14T07:11:57.686Z,44.42
2017-05-14T07:14:26.000Z,41.80
2017-05-14T07:16:54.277Z,39.82
2017-05-14T07:19:22.595Z,38.55
2017-05-14T07:21:50.925Z,38.65
2017-05-14T07:24:19.303Z,37.20
2017-05-14T07:26:47.622Z,36.75
2017-05-14T07:29:16.688Z,35.93
2017-05-14T07:31:45.114Z,35.85
2017-05-14T07:34:13.430Z,32.82
2017-05-14T07:36:41.911Z,29.40
2017-05-14T07:39:10.229Z,31.03
2017-05-14T07:41:38.552Z,28.13
2017-05-14T07:44:06.845Z,26.77
2017-05-14T07:46:35.153Z,26.03
2017-05-14T07:49:04.349Z,26.73
2017-05-14T07:51:32.684Z,26.10
2017-05-14T07:54:00.978Z,24.03
2017-05-14T07:56:29.336Z,24.87
2017-05-14T07:58:57.658Z,21.92
2017-05-14T08:01:25.980Z,23.42
2017-05-14T08:03:54.288Z,21.58
2017-05-14T08:06:22.591Z,22.50
2017-05-14T08:08:50.867Z,23.30
2017-05-14T08:11:19.240Z,21.12
2017-05-14T08:13:47.578Z,18.50
2017-05-14T08:16:15.880Z,18.50
2017-05-14T08:18:44.204Z,17.67
2017-05-14T08:21:13.310Z,20.07
2017-05-14T08:23:41.603Z,19.03
2017-05-14T08:26:09.905Z,17.57
2017-05-14T08:28:38.201Z,14.43
2017-05-14T08:31:06.475Z,10.13
2017-05-14T08:33:34.926Z,10.70
2017-05-14T08:36:03.224Z,12.55
2017-05-14T08:38:31.548Z,10.53
2017-05-14T08:40:59.853Z,9.25
2017-05-14T08:43:28.201Z,10.82
2017-05-14T08:45:57.410Z,10.88
2017-05-14T08:48:25.751Z,13.53
2017-05-14T08:50:54.074Z,10.80
2017-05-14T08:53:22.405Z,6.67
2017-05-14T08:55:50.696Z,9.83
2017-05-14T08:58:20.035Z,8.03
2017-05-14T09:00:48.405Z,7.70
2017-05-14T09:03:16.700Z,8.87
2017-05-14T09:05:45.014Z,6.72
2017-05-14T09:08:13.332Z,7.07
2017-05-14T09:10:41.609Z,6.38
2017-05-14T09:13:09.940Z,6.75
2017-05-14T09:15:38.614Z,7.50
2017-05-14T09:18:06.953Z,6.85
2017-05-14T09:20:35.264Z,7.12
2017-05-14T09:23:03.549Z,5.87
2017-05-14T09:25:31.832Z,7.82
2017-05-14T09:28:00.310Z,7.00
2017-05-14T09:30:28.674Z,6.45
2017-05-14T09:32:57.014Z,6.62
2017-05-14T09:35:26.368Z,7.15
2017-05-14T09:37:54.649Z,6.30
2017-05-14T09:40:22.987Z,7.28
2017-05-14T09:42:51.267Z,7.53
2017-05-14T09:45:19.539Z,5.57
2017-05-14T09:47:47.869Z,5.83
2017-05-14T09:50:16.180Z,6.17
2017-05-14T09:52:45.212Z,6.98
2017-05-14T09:55:13.550Z,6.82
2017-05-14T09:57:41.894Z,7.35
2017-05-14T10:00:10.188Z,6.90
2017-05-14T10:02:38.523Z,7.48
2017-05-14T10:05:06.827Z,6.75
2017-05-14T10:07:35.091Z,6.48
2017-05-14T10:10:03.378Z,6.88
2017-05-14T10:12:32.104Z,6.88
2017-05-14T10:15:01.167Z,7.37
2017-05-14T10:17:29.459Z,7.75
2017-05-14T10:19:57.746Z,9.55
2017-05-14T10:22:26.058Z,8.28
2017-05-14T10:24:54.605Z,9.02
2017-05-14T10:27:23.648Z,7.62
2017-05-14T10:29:51.957Z,6.80
2017-05-14T10:32:20.251Z,8.08
2017-05-14T10:34:48.564Z,8.48
2017-05-14T10:37:16.878Z,6.42
2017-05-14T10:39:45.179Z,7.15
2017-05-14T10:42:13.512Z,7.68
2017-05-14T10:44:41.780Z,7.53
2017-05-14T10:47:10.055Z,7.00
2017-05-14T10:49:38.373Z,5.95
2017-05-14T10:52:06.671Z,6.93
2017-05-14T10:54:35.005Z,5.65
2017-05-14T10:57:03.301Z,6.87
2017-05-14T10:59:31.642Z,6.58
2017-05-14T11:01:59.998Z,7.05
2017-05-14T11:04:28.297Z,5.97
2017-05-14T11:06:56.618Z,9.88
2017-05-14T11:09:24.943Z,5.90
2017-05-14T11:11:54.000Z,5.53
2017-05-14T11:14:22.575Z,7.65
2017-05-14T11:16:50.885Z,6.67
2017-05-14T11:19:19.226Z,7.58
2017-05-14T11:21:47.532Z,5.88
2017-05-14T11:24:15.836Z,6.97
2017-05-14T11:26:44.922Z,6.53
2017-05-14T11:29:13.994Z,6.88
2017-05-14T11:31:42.332Z,5.53
2017-05-14T11:34:10.642Z,5.73
2017-05-14T11:36:38.933Z,5.42
2017-05-14T11:39:08.135Z,4.40
2017-05-14T11:41:37.985Z,5.88
2017-05-14T11:44:06.257Z,4.80
2017-05-14T11:46:34.594Z,7.70
2017-05-14T11:49:02.922Z,4.95
2017-05-14T11:51:31.233Z,5.47
2017-05-14T11:53:59.520Z,5.40
2017-05-14T11:56:27.804Z,4.10
2017-05-14T11:58:56.185Z,3.80
2017-05-14T12:01:24.475Z,4.43
2017-05-14T12:03:53.505Z,4.33
2017-05-14T12:06:21.797Z,4.27
2017-05-14T12:08:50.072Z,4.45
2017-05-14T12:11:18.335Z,4.67
2017-05-14T12:13:46.612Z,4.42
2017-05-14T12:16:14.940Z,4.88
2017-05-14T12:18:43.227Z,4.22
2017-05-14T12:21:12.241Z,4.00
2017-05-14T12:23:40.509Z,4.05
2017-05-14T12:26:08.924Z,3.53
2017-05-14T12:28:37.241Z,2.38
2017-05-14T12:31:05.593Z,2.77
2017-05-14T12:33:33.876Z,3.40
2017-05-14T12:36:02.170Z,3.55
2017-05-14T12:38:31.923Z,4.05
2017-05-14T12:41:02.351Z,3.33
2017-05-14T12:43:31.435Z,3.93
2017-05-14T12:46:02.138Z,3.47
2017-05-14T12:48:31.930Z,3.12
2017-05-14T12:51:00.267Z,4.53
2017-05-14T12:53:29.334Z,2.48
2017-05-14T12:55:57.712Z,3.45
2017-05-14T12:58:26.001Z,2.95
2017-05-14T13:00:54.291Z,3.35
2017-05-14T13:03:23.085Z,2.40
2017-05-14T13:05:51.436Z,2.97
2017-05-14T13:08:19.985Z,3.97
2017-05-14T13:10:48.259Z,3.58
2017-05-14T13:13:16.885Z,3.38
2017-05-14T13:15:45.178Z,2.90
2017-05-14T13:18:14.828Z,6.07
2017-05-14T13:20:43.110Z,3.03
2017-05-14T13:23:11.444Z,3.47
2017-05-14T13:25:39.741Z,4.33
2017-05-14T13:28:08.057Z,4.77
2017-05-14T13:30:36.537Z,5.37
2017-05-14T13:33:05.640Z,4.52
2017-05-14T13:35:33.963Z,6.93
2017-05-14T13:38:03.004Z,6.82
2017-05-14T13:40:31.298Z,6.12
2017-05-14T13:42:59.628Z,10.45
2017-05-14T13:45:28.007Z,9.03
2017-05-14T13:47:56.319Z,8.30
2017-05-14T13:50:24.656Z,7.50
2017-05-14T13:52:53.704Z,7.77
2017-05-14T13:55:22.031Z,8.45
2017-05-14T13:57:50.371Z,8.38
2017-05-14T14:00:18.752Z,8.38
2017-05-14T14:02:47.116Z,7.83
2017-05-14T14:05:15.495Z,9.12
2017-05-14T14:07:43.784Z,7.47
2017-05-14T14:10:12.088Z,8.85
2017-05-14T14:12:41.309Z,7.88
2017-05-14T14:15:09.643Z,9.28
2017-05-14T14:17:38.009Z,8.67
2017-05-14T14:20:06.467Z,8.40
2017-05-14T14:22:34.753Z,8.17
2017-05-14T14:25:03.119Z,8.43
2017-05-14T14:27:31.492Z,7.45
2017-05-14T14:29:59.805Z,15.17
2017-05-14T14:32:30.968Z,8.02
2017-05-14T14:34:59.284Z,8.55
2017-05-14T14:37:27.595Z,6.58
2017-05-14T14:39:55.932Z,5.65
2017-05-14T14:42:24.289Z,5.58
2017-05-14T14:44:52.631Z,3.50
2017-05-14T14:47:21.030Z,4.37
2017-05-14T14:49:49.430Z,5.88
2017-05-14T14:52:17.808Z,5.45
2017-05-14T14:54:46.144Z,6.00
2017-05-14T14:57:14.467Z,11.12
2017-05-14T14:59:43.508Z,5.87
2017-05-14T15:02:11.928Z,4.83
2017-05-14T15:04:40.252Z,5.23
2017-05-14T15:07:08.577Z,4.43
2017-05-14T15:09:36.913Z,3.32
2017-05-14T15:12:05.320Z,2.65
2017-05-14T15:14:33.732Z,2.27
2017-05-14T15:17:02.060Z,3.13
2017-05-14T15:19:30.396Z,2.80
2017-05-14T15:21:59.763Z,2.43
2017-05-14T15:24:28.089Z,3.00
2017-05-14T15:26:57.442Z,3.17
2017-05-14T15:29:25.756Z,2.83
2017-05-14T15:31:54.804Z,3.32
2017-05-14T15:34:23.158Z,2.82
2017-05-14T15:36:51.479Z,2.93
2017-05-14T15:39:19.858Z,2.97
2017-05-14T15:41:48.288Z,2.97
2017-05-14T15:44:16.626Z,2.90
2017-05-14T15:46:45.113Z,4.12
2017-05-14T15:49:13.502Z,3.60
2017-05-14T15:51:41.838Z,3.90
2017-05-14T15:54:11.238Z,3.42
2017-05-14T15:56:39.519Z,4.02
2017-05-14T15:59:07.849Z,4.18
2017-05-14T16:01:36.155Z,3.03
2017-05-14T16:04:06.514Z,2.88
2017-05-14T16:06:35.666Z,4.07
2017-05-14T16:09:03.988Z,4.10
2017-05-14T16:11:32.328Z,4.85
2017-05-14T16:14:00.714Z,4.93
2017-05-14T16:16:29.026Z,3.97
2017-05-14T16:18:57.373Z,4.43
2017-05-14T16:21:25.688Z,4.90
2017-05-14T16:23:54.004Z,5.23
2017-05-14T16:26:22.335Z,4.53
2017-05-14T16:28:50.669Z,5.38
2017-05-14T16:31:18.979Z,5.45
2017-05-14T16:33:47.924Z,4.75
2017-05-14T16:36:16.955Z,4.70
2017-05-14T16:38:45.268Z,4.90
2017-05-14T16:41:13.569Z,7.65
2017-05-14T16:43:42.764Z,3.92
2017-05-14T16:46:11.848Z,3.50
2017-05-14T16:48:40.148Z,3.95
2017-05-14T16:51:08.442Z,4.63
2017-05-14T16:53:37.738Z,5.53
2017-05-14T16:56:07.002Z,4.90
2017-05-14T16:58:35.323Z,3.95
2017-05-14T17:01:03.627Z,5.25
2017-05-14T17:03:31.994Z,4.93
2017-05-14T17:06:00.271Z,5.38
2017-05-14T17:08:28.632Z,3.17
2017-05-14T17:10:57.082Z,4.05
2017-05-14T17:13:25.383Z,4.78
2017-05-14T17:15:53.684Z,3.80
2017-05-14T17:18:22.065Z,3.62
2017-05-14T17:20:50.765Z,3.68
2017-05-14T17:23:19.105Z,11.13
2017-05-14T17:25:47.399Z,4.97
2017-05-14T17:28:15.710Z,3.82
2017-05-14T17:30:44.096Z,3.35
2017-05-14T17:33:12.384Z,4.33
2017-05-14T17:35:40.697Z,3.02
2017-05-14T17:38:09.032Z,3.38
2017-05-14T17:40:38.729Z,4.22
2017-05-14T17:43:07.092Z,3.03
2017-05-14T17:45:35.401Z,2.78
2017-05-14T17:48:03.734Z,3.53
2017-05-14T17:50:32.072Z,4.43
2017-05-14T17:53:00.376Z,4.97
2017-05-14T17:55:29.640Z,6.90
2017-05-14T17:57:57.972Z,4.87
2017-05-14T18:00:26.355Z,3.48
2017-05-14T18:02:54.665Z,15.28
2017-05-14T18:05:22.978Z,3.88
2017-05-14T18:07:52.024Z,5.37
2017-05-14T18:10:20.334Z,3.90
2017-05-14T18:12:48.685Z,3.45
2017-05-14T18:15:17.067Z,2.57
2017-05-14T18:17:45.378Z,3.68
2017-05-14T18:20:14.455Z,5.38
2017-05-14T18:22:42.790Z,5.60
2017-05-14T18:25:11.217Z,3.23
2017-05-14T18:27:40.277Z,6.15
2017-05-14T18:30:08.690Z,6.13
2017-05-14T18:32:37.145Z,3.32
2017-05-14T18:35:05.485Z,5.52
2017-05-14T18:37:33.812Z,4.47
2017-05-14T18:40:02.125Z,4.77
2017-05-14T18:42:30.533Z,4.03
2017-05-14T18:44:58.964Z,3.50
2017-05-14T18:47:27.284Z,3.80
2017-05-14T18:49:55.608Z,3.75
2017-05-14T18:52:23.982Z,5.90
2017-05-14T18:54:52.348Z,5.23
2017-05-14T18:57:20.657Z,4.08
2017-05-14T18:59:48.991Z,8.15
2017-05-14T19:02:17.321Z,6.85
2017-05-14T19:04:45.712Z,8.00
2017-05-14T19:07:14.078Z,5.92
2017-05-14T19:09:42.372Z,7.60
2017-05-14T19:12:10.810Z,8.02
2017-05-14T19:14:39.110Z,5.45
2017-05-14T19:17:07.436Z,7.92
2017-05-14T19:19:35.744Z,6.78
2017-05-14T19:22:04.059Z,7.47
2017-05-14T19:24:32.409Z,12.98
2017-05-14T19:27:00.719Z,12.53
2017-05-14T19:29:29.068Z,8.55
2017-05-14T19:31:57.442Z,8.92
2017-05-14T19:34:25.776Z,7.17
2017-05-14T19:36:54.120Z,7.07
2017-05-14T19:39:22.454Z,8.12
2017-05-14T19:41:50.758Z,8.78
2017-05-14T19:44:19.145Z,8.27
2017-05-14T19:46:47.508Z,9.02
2017-05-14T19:49:15.916Z,6.15
2017-05-14T19:51:44.280Z,6.47
2017-05-14T19:54:12.593Z,8.00
2017-05-14T19:56:40.940Z,7.22
2017-05-14T19:59:09.339Z,8.32
2017-05-14T20:01:37.699Z,7.48
2017-05-14T20:04:10.836Z,9.85
2017-05-14T20:06:39.319Z,12.27
2017-05-14T20:09:07.657Z,8.05
2017-05-14T20:11:36.019Z,11.37
2017-05-14T20:14:04.345Z,7.18
2017-05-14T20:16:32.681Z,7.72
2017-05-14T20:19:00.993Z,10.62
2017-05-14T20:21:30.148Z,9.55
2017-05-14T20:23:58.526Z,10.35
2017-05-14T20:26:26.891Z,10.28
2017-05-14T20:28:55.195Z,10.83
2017-05-14T20:31:23.511Z,20.50
2017-05-14T20:33:51.906Z,16.33
2017-05-14T20:36:20.285Z,13.12
2017-05-14T20:38:48.608Z,11.97
2017-05-14T20:41:16.980Z,12.73
2017-05-14T20:43:45.303Z,10.80
2017-05-14T20:46:13.650Z,12.08
2017-05-14T20:48:41.949Z,34.32
2017-05-14T20:51:11.007Z,28.48
2017-05-14T20:53:39.384Z,15.63
2017-05-14T20:56:07.813Z,11.35
2017-05-14T20:58:36.861Z,13.00
2017-05-14T21:01:05.178Z,13.27
2017-05-14T21:03:34.255Z,14.27
2017-05-14T21:06:03.462Z,12.43
2017-05-14T21:08:31.756Z,13.42
2017-05-14T21:11:00.092Z,19.92
2017-05-14T21:13:28.764Z,15.72
2017-05-14T21:15:57.044Z,16.42
2017-05-14T21:18:25.383Z,14.45
2017-05-14T21:20:53.913Z,15.87
2017-05-14T21:23:22.220Z,15.33
2017-05-14T21:25:50.537Z,15.90
2017-05-14T21:28:18.829Z,15.10
2017-05-14T21:30:47.141Z,15.55
2017-05-14T21:33:15.446Z,16.70
2017-05-14T21:35:44.808Z,17.80
2017-05-14T21:38:13.114Z,18.33
2017-05-14T21:40:41.408Z,16.12
2017-05-14T21:43:09.833Z,19.32
2017-05-14T21:45:38.179Z,16.92
2017-05-14T21:48:06.607Z,16.62
2017-05-14T21:50:34.945Z,21.83
2017-05-14T21:53:03.468Z,17.72
2017-05-14T21:55:32.097Z,17.38
2017-05-14T21:58:01.634Z,20.25
2017-05-14T22:00:30.505Z,17.97
2017-05-14T22:02:58.842Z,18.13
2017-05-14T22:05:27.172Z,22.30
2017-05-14T22:07:55.497Z,17.13
2017-05-14T22:10:23.839Z,15.53
2017-05-14T22:12:52.147Z,17.18
2017-05-14T22:15:20.479Z,19.18
2017-05-14T22:17:48.824Z,17.28
2017-05-14T22:20:17.115Z,16.60
2017-05-14T22:22:45.444Z,18.73
2017-05-14T22:25:13.772Z,17.88
2017-05-14T22:27:42.934Z,16.80
2017-05-14T22:30:11.222Z,16.18
2017-05-14T22:32:39.537Z,16.32
2017-05-14T22:35:07.843Z,16.67
2017-05-14T22:37:36.130Z,16.77
2017-05-14T22:40:04.444Z,16.75
2017-05-14T22:42:32.751Z,17.82
2017-05-14T22:45:01.058Z,17.75
2017-05-14T22:47:29.360Z,16.62
2017-05-14T22:49:57.787Z,17.92
2017-05-14T22:52:26.108Z,16.87
2017-05-14T22:54:54.477Z,19.23
2017-05-14T22:57:22.809Z,17.43
2017-05-14T22:59:51.847Z,18.30
2017-05-14T23:02:20.119Z,18.73
2017-05-14T23:04:48.419Z,19.68
2017-05-14T23:07:17.605Z,18.95
2017-05-14T23:09:46.303Z,17.62
2017-05-14T23:12:14.607Z,15.18
2017-05-14T23:14:43.829Z,18.27
2017-05-14T23:17:12.111Z,18.72
2017-05-14T23:19:40.486Z,21.27
2017-05-14T23:22:08.846Z,18.53
2017-05-14T23:24:38.533Z,18.92
2017-05-14T23:27:07.296Z,20.18
2017-05-14T23:29:36.324Z,19.87
2017-05-14T23:32:05.357Z,18.90
2017-05-14T23:34:33.687Z,18.30
2017-05-14T23:37:02.674Z,18.57
2017-05-14T23:39:30.961Z,19.27
2017-05-14T23:41:59.319Z,19.42
2017-05-14T23:44:27.631Z,19.58
2017-05-14T23:46:56.661Z,19.80
2017-05-14T23:49:24.953Z,19.25
2017-05-14T23:51:53.268Z,18.30
2017-05-14T23:54:21.549Z,19.53
2017-05-14T23:56:49.875Z,18.58
2017-05-14T23:59:18.183Z,19.37
